NCAR-RAP Real-Time Weather Data

Output produced by METARs form (14 October 2019  23:43 UTC)
found at http://weather.rap.ucar.edu/surface/
 
KMEM 142254Z VRB03KT 10SM FEW038 SCT180 BKN240 19/11 A3005 RMK AO2 SLP174 T01940111
KMEM 142154Z 18004KT 10SM FEW200 BKN250 21/11 A3006 RMK AO2 SLP179 T02060106
KMEM 142054Z 16005KT 10SM FEW200 BKN250 21/08 A3005 RMK AO2 SLP176 T02110083 56017
KMEM 141954Z 19004KT 10SM FEW200 BKN250 21/09 A3006 RMK AO2 SLP177 T02060089
KMEM 141854Z 19006KT 10SM BKN250 21/09 A3008 RMK AO2 SLP184 T02110089
KMEM 141754Z 16003KT 10SM BKN250 20/08 A3010 RMK AO2 SLP193 T02000083 10206 20072 58010 $
KMEM 141654Z 08007KT 10SM BKN250 19/08 A3012 RMK AO2 SLP197 T01940078
KMEM 141554Z 08006KT 10SM BKN250 18/09 A3013 RMK AO2 SLP203 T01780094
KMEM 141454Z 00000KT 10SM SCT250 14/11 A3013 RMK AO2 SLP203 T01390106 51011
KMEM 141354Z 14004KT 10SM SCT250 12/10 A3013 RMK AO2 SLP200 T01170100
KMEM 141254Z 17003KT 10SM FEW250 09/08 A3011 RMK AO2 SLP195 T00940083
KMEM 141154Z 00000KT 10SM FEW250 08/07 A3010 RMK AO2 SLP192 T00780067 10100 20072 51008
KMEM 141054Z 00000KT 10SM CLR 08/07 A3009 RMK AO2 SLP189 T00780072
KMEM 140954Z 00000KT 10SM CLR 09/08 A3009 RMK AO2 SLP188 T00890078
KMEM 140854Z 19003KT 10SM CLR 08/07 A3008 RMK AO2 SLP184 T00780072 56002
KMEM 140754Z 00000KT 10SM CLR 09/08 A3008 RMK AO2 SLP183 T00890083
KMEM 140654Z 00000KT 10SM CLR 09/09 A3008 RMK AO2 SLP185 T00940089
KMEM 140554Z 00000KT 10SM CLR 10/08 A3008 RMK AO2 SLP185 T01000083 10156 20100 402060050 51009
KMEM 140454Z VRB03KT 10SM CLR 11/08 A3008 RMK AO2 SLP185 T01060083
KMEM 140354Z 00000KT 10SM CLR 11/09 A3007 RMK AO2 SLP182 T01110089
KMEM 140254Z 21008KT 10SM CLR 12/09 A3005 RMK AO2 SLP176 T01220089 53011
KMEM 140154Z 20006KT 10SM CLR 13/08 A3004 RMK AO2 SLP172 T01280078
KMEM 140054Z 18006KT 10SM CLR 13/07 A3003 RMK AO2 SLP170 T01330072
KMEM 132354Z 19005KT 10SM CLR 16/06 A3002 RMK AO2 SLP166 T01610061 10206 20161 53001
KMEM 132254Z 22004KT 10SM CLR 18/04 A3002 RMK AO2 SLP165 T01780044
KMEM 132154Z 23005KT 10SM FEW200 19/05 A3002 RMK AO2 SLP163 T01940050
KMEM 132054Z 25007KT 210V280 10SM FEW200 20/03 A3002 RMK AO2 SLP164 T02000033 56016
KMEM 131954Z VRB05KT 10SM FEW200 19/03 A3003 RMK AO2 SLP169 T01940033
KMEM 131854Z VRB03KT 10SM FEW200 19/06 A3004 RMK AO2 SLP172 T01890056
KMEM 131754Z 24006KT 10SM FEW075 FEW250 18/06 A3007 RMK AO2 SLP180 T01780056 10183 20050 58008
KMEM 131654Z 24008KT 10SM SCT065 SCT200 17/05 A3011 RMK AO2 SLP193 T01670050
KMEM 131554Z 21007KT 10SM FEW200 16/04 A3010 RMK AO2 SLP192 T01560044
KMEM 131454Z VRB03KT 10SM FEW200 14/06 A3009 RMK AO2 SLP188 T01390061 51007
KMEM 131354Z 00000KT 10SM FEW200 11/07 A3008 RMK AO2 SLP187 T01060072
KMEM 131254Z 19003KT 10SM FEW200 07/06 A3008 RMK AO2 SLP185 T00720056
KMEM 131154Z 19004KT 10SM FEW250 06/04 A3007 RMK AO2 SLP182 T00560039 10083 20050 50008
KMEM 131054Z 19003KT 10SM CLR 06/05 A3007 RMK AO2 SLP183 T00610050
KMEM 130954Z 00000KT 10SM CLR 07/06 A3006 RMK AO2 SLP177 T00670056
KMEM 130854Z 00000KT 10SM CLR 07/06 A3004 RMK AO2 SLP173 T00670056 55005
KMEM 130754Z 00000KT 10SM CLR 07/06 A3004 RMK AO2 SLP172 T00720061
KMEM 130654Z 00000KT 10SM CLR 07/06 A3005 RMK AO2 SLP175 T00720061
KMEM 130554Z 20003KT 10SM CLR 08/06 A3006 RMK AO2 SLP179 T00780061 10144 20078 401720061 58007
KMEM 130454Z 00000KT 10SM CLR 09/07 A3007 RMK AO2 SLP184 T00890067
KMEM 130354Z 00000KT 10SM CLR 09/07 A3008 RMK AO2 SLP185 T00890067
KMEM 130254Z 00000KT 10SM CLR 09/06 A3008 RMK AO2 SLP186 T00940061 58004
KMEM 130154Z 00000KT 10SM CLR 11/06 A3010 RMK AO2 SLP191 T01110056
KMEM 130054Z 23003KT 10SM CLR 12/04 A3010 RMK AO2 SLP192 T01170044
KMEM 122354Z 16003KT 10SM CLR 14/03 A3009 RMK AO2 SLP190 T01390028 10172 20133 56010